createdAt,value
2022-10-13T00:01:09.240Z,99717.09
2022-10-13T00:04:25.619Z,99718.55
2022-10-13T00:07:41.779Z,99709.73
2022-10-13T00:11:00.816Z,99706.63
2022-10-13T00:14:18.385Z,99714.78
2022-10-13T00:17:37.666Z,99710.56
2022-10-13T00:20:56.788Z,99713.55
2022-10-13T00:24:15.165Z,99710.47
2022-10-13T00:27:33.128Z,99712.41
2022-10-13T00:30:49.704Z,99711.45
2022-10-13T00:34:08.718Z,99706.66
2022-10-13T00:37:28.406Z,99699.81
2022-10-13T00:40:49.869Z,99711.65
2022-10-13T00:44:10.394Z,99705.89
2022-10-13T00:47:27.223Z,99701.31
2022-10-13T00:50:49.740Z,99696.81
2022-10-13T00:54:07.877Z,99702.08
2022-10-13T00:57:26.045Z,99702.90
2022-10-13T01:00:42.982Z,99693.59
2022-10-13T01:04:00.773Z,99701.36
2022-10-13T01:07:17.705Z,99697.98
2022-10-13T01:10:40.864Z,99692.59
2022-10-13T01:14:03.545Z,99693.27
2022-10-13T01:17:27.801Z,99688.08
2022-10-13T01:21:16.375Z,99688.58
2022-10-13T01:24:51.847Z,99679.11
2022-10-13T01:28:45.874Z,99679.50
2022-10-13T01:32:08.381Z,99671.41
2022-10-13T01:35:30.794Z,99665.56
2022-10-13T01:38:52.618Z,99667.26
2022-10-13T01:42:14.920Z,99663.30
2022-10-13T01:45:36.572Z,99661.62
2022-10-13T01:48:54.700Z,99658.41
2022-10-13T01:52:16.719Z,99663.39
2022-10-13T01:55:34.674Z,99666.74
2022-10-13T01:58:53.078Z,99658.75
2022-10-13T02:02:18.526Z,99662.10
2022-10-13T02:05:44.997Z,99655.53
2022-10-13T02:09:09.764Z,99659.83
2022-10-13T02:12:32.068Z,99645.86
2022-10-13T02:15:53.955Z,99650.16
2022-10-13T02:19:15.228Z,99655.89
2022-10-13T02:22:35.919Z,99651.83
2022-10-13T02:25:56.652Z,99646.36
2022-10-13T02:29:21.954Z,99650.89
2022-10-13T02:32:38.686Z,99645.52
2022-10-13T02:35:55.507Z,99646.47
2022-10-13T02:39:13.704Z,99646.60
2022-10-13T02:42:30.447Z,99639.07
2022-10-13T02:45:48.474Z,99645.39
2022-10-13T02:49:05.554Z,99647.89
2022-10-13T02:52:34.397Z,99642.50
2022-10-13T02:55:51.618Z,99637.38
2022-10-13T02:59:07.906Z,99639.75
2022-10-13T03:02:25.114Z,99641.08
2022-10-13T03:05:41.231Z,99637.03
2022-10-13T03:08:57.643Z,99642.02
2022-10-13T03:12:15.061Z,99646.45
2022-10-13T03:15:32.199Z,99634.03
2022-10-13T03:18:51.772Z,99631.88
2022-10-13T03:22:08.237Z,99639.88
2022-10-13T03:25:25.413Z,99627.69
2022-10-13T03:28:43.507Z,99635.22
2022-10-13T03:32:07.740Z,99639.13
2022-10-13T03:35:46.717Z,99626.27
2022-10-13T03:39:09.333Z,99629.95
2022-10-13T03:42:28.205Z,99622.67
2022-10-13T03:45:44.955Z,99632.09
2022-10-13T03:49:03.248Z,99625.88
2022-10-13T03:52:33.124Z,99633.84
2022-10-13T03:55:57.671Z,99623.14
2022-10-13T03:59:17.501Z,99623.91
2022-10-13T04:02:36.165Z,99618.91
2022-10-13T04:05:55.733Z,99618.86
2022-10-13T04:09:12.503Z,99616.98
2022-10-13T04:12:33.117Z,99622.30
2022-10-13T04:15:49.630Z,99617.95
2022-10-13T04:19:09.646Z,99616.80
2022-10-13T04:22:25.839Z,99618.74
2022-10-13T04:25:44.670Z,99615.06
2022-10-13T04:29:03.344Z,99621.98
2022-10-13T04:32:22.025Z,99610.59
2022-10-13T04:35:39.153Z,99615.75
2022-10-13T04:38:55.723Z,99617.31
2022-10-13T04:42:12.464Z,99616.77
2022-10-13T04:45:28.663Z,99616.83
2022-10-13T04:48:45.322Z,99613.87
2022-10-13T04:52:01.733Z,99605.63
2022-10-13T04:55:19.729Z,99604.81
2022-10-13T04:58:36.279Z,99609.23
2022-10-13T05:01:53.155Z,99604.90
2022-10-13T05:05:10.023Z,99613.09
2022-10-13T05:08:26.757Z,99625.55
2022-10-13T05:11:43.364Z,99621.73
2022-10-13T05:14:59.828Z,99621.16
2022-10-13T05:18:15.949Z,99621.40
2022-10-13T05:21:34.728Z,99614.44
2022-10-13T05:24:52.583Z,99623.38
2022-10-13T05:28:09.898Z,99616.58
2022-10-13T05:31:29.130Z,99625.59
2022-10-13T05:34:46.300Z,99627.27
2022-10-13T05:38:02.442Z,99629.27
2022-10-13T05:41:21.482Z,99627.59
2022-10-13T05:44:38.231Z,99629.34
2022-10-13T05:47:54.399Z,99625.67
2022-10-13T05:51:15.790Z,99627.38
2022-10-13T05:54:35.957Z,99626.16
2022-10-13T05:57:55.717Z,99622.64
2022-10-13T06:01:17.289Z,99631.61
2022-10-13T06:04:39.679Z,99631.16
2022-10-13T06:07:56.711Z,99634.27
2022-10-13T06:11:15.106Z,99627.63
2022-10-13T06:14:31.214Z,99631.92
2022-10-13T06:17:51.256Z,99628.69
2022-10-13T06:21:05.790Z,99632.26
2022-10-13T06:24:22.512Z,99635.37
2022-10-13T06:27:39.203Z,99634.79
2022-10-13T06:30:58.992Z,99634.33
2022-10-13T06:34:15.348Z,99634.45
2022-10-13T06:37:33.133Z,99632.56
2022-10-13T06:40:49.568Z,99639.02
2022-10-13T06:44:06.062Z,99640.03
2022-10-13T06:47:23.174Z,99637.66
2022-10-13T06:50:42.908Z,99644.82
2022-10-13T06:54:00.860Z,99630.06
2022-10-13T06:57:19.040Z,99623.96
2022-10-13T07:00:35.070Z,99623.96
2022-10-13T07:03:53.726Z,99624.59
2022-10-13T07:07:10.102Z,99627.60
2022-10-13T07:10:26.311Z,99632.38
2022-10-13T07:13:46.239Z,99633.81
2022-10-13T07:17:02.360Z,99635.84
2022-10-13T07:20:21.066Z,99633.47
2022-10-13T07:23:39.107Z,99635.75
2022-10-13T07:26:55.505Z,99630.49
2022-10-13T07:30:14.231Z,99626.06
2022-10-13T07:33:30.975Z,99629.41
2022-10-13T07:36:47.044Z,99632.23
2022-10-13T07:40:04.298Z,99626.50
2022-10-13T07:43:21.136Z,99617.20
2022-10-13T07:46:37.291Z,99616.25
2022-10-13T07:49:55.359Z,99608.20
2022-10-13T07:53:13.726Z,99607.84
2022-10-13T07:56:30.424Z,99602.42
2022-10-13T07:59:49.730Z,99593.67
2022-10-13T08:03:08.126Z,99591.89
2022-10-13T08:06:24.649Z,99589.75
2022-10-13T08:09:44.682Z,99589.86
2022-10-13T08:13:01.201Z,99583.56
2022-10-13T08:16:18.788Z,99583.41
2022-10-13T08:19:35.747Z,99589.69
2022-10-13T08:22:52.475Z,99587.81
2022-10-13T08:26:09.725Z,99578.45
2022-10-13T08:29:26.090Z,99570.16
2022-10-13T08:32:42.644Z,99577.39
2022-10-13T08:35:59.050Z,99571.30
2022-10-13T08:39:16.853Z,99573.18
2022-10-13T08:42:33.771Z,99555.28
2022-10-13T08:45:50.924Z,99565.98
2022-10-13T08:49:10.421Z,99568.23
2022-10-13T08:52:32.389Z,99564.46
2022-10-13T08:55:54.956Z,99560.30
2022-10-13T08:59:15.293Z,99567.65
2022-10-13T09:02:38.642Z,99564.70
2022-10-13T09:06:04.361Z,99565.48
2022-10-13T09:09:24.217Z,99559.03
2022-10-13T09:12:40.282Z,99559.50
2022-10-13T09:15:58.826Z,99552.69
2022-10-13T09:19:35.022Z,99544.47
2022-10-13T09:22:53.188Z,99547.88
2022-10-13T09:26:14.882Z,99549.95
2022-10-13T09:29:34.289Z,99552.00
2022-10-13T09:32:50.692Z,99542.88
2022-10-13T09:36:24.246Z,99550.95
2022-10-13T09:39:41.880Z,99550.87
2022-10-13T09:43:01.921Z,99553.95
2022-10-13T09:46:28.698Z,99542.56
2022-10-13T09:49:50.031Z,99550.02
2022-10-13T09:53:23.508Z,99536.89
2022-10-13T09:56:48.039Z,99540.53
2022-10-13T10:00:13.077Z,99542.48
2022-10-13T10:03:34.200Z,99540.55
2022-10-13T10:06:52.975Z,99525.27
2022-10-13T10:10:16.581Z,99532.95
2022-10-13T10:13:35.259Z,99521.99
2022-10-13T10:16:55.874Z,99513.13
2022-10-13T10:20:25.155Z,99513.16
2022-10-13T10:23:51.660Z,99505.62
2022-10-13T10:27:13.405Z,99497.63
2022-10-13T10:30:31.461Z,99505.93
2022-10-13T10:33:54.236Z,99494.36
2022-10-13T10:37:45.171Z,99494.58
2022-10-13T10:41:08.250Z,99501.77
2022-10-13T10:44:28.669Z,99494.15
2022-10-13T10:47:48.711Z,99498.55
2022-10-13T10:51:08.296Z,99492.48
2022-10-13T10:54:35.984Z,99491.19
2022-10-13T10:57:58.886Z,99485.53
2022-10-13T11:01:25.554Z,99479.64
2022-10-13T11:05:05.306Z,99483.92
2022-10-13T11:08:38.727Z,99476.17
2022-10-13T11:11:55.121Z,99467.81
2022-10-13T11:15:18.506Z,99462.19
2022-10-13T11:19:12.542Z,99458.00
2022-10-13T11:22:31.623Z,99458.70
2022-10-13T11:25:49.708Z,99453.27
2022-10-13T11:29:07.358Z,99440.06
2022-10-13T11:33:03.121Z,99446.02
2022-10-13T11:37:01.335Z,99438.11
2022-10-13T11:40:29.961Z,99431.12
2022-10-13T11:43:54.469Z,99431.57
2022-10-13T11:47:17.231Z,99421.91
2022-10-13T11:50:43.047Z,99423.38
2022-10-13T11:54:06.323Z,99409.22
2022-10-13T11:57:32.970Z,99414.56
2022-10-13T12:01:04.023Z,99412.45
2022-10-13T12:04:30.823Z,99421.27
2022-10-13T12:07:49.404Z,99411.24
2022-10-13T12:11:09.326Z,99404.05
2022-10-13T12:14:35.398Z,99401.58
2022-10-13T12:17:54.034Z,99397.45
2022-10-13T12:21:18.337Z,99401.78
2022-10-13T12:24:38.030Z,99407.37
2022-10-13T12:27:57.724Z,99391.81
2022-10-13T12:31:22.496Z,99385.47
2022-10-13T12:34:40.851Z,99383.25
2022-10-13T12:37:58.432Z,99371.94
2022-10-13T12:42:00.860Z,99374.04
2022-10-13T12:45:32.187Z,99370.17
2022-10-13T12:48:52.015Z,99366.91
2022-10-13T12:52:16.903Z,99361.40
2022-10-13T12:55:39.051Z,99367.55
2022-10-13T12:58:55.332Z,99364.23
2022-10-13T13:02:25.189Z,99370.86
2022-10-13T13:05:51.636Z,99361.64
2022-10-13T13:09:33.978Z,99358.13
2022-10-13T13:12:52.325Z,99355.47
2022-10-13T13:16:26.753Z,99339.29
2022-10-13T13:19:44.815Z,99347.53
2022-10-13T13:23:01.535Z,99349.63
2022-10-13T13:26:22.796Z,99347.98
2022-10-13T13:29:39.297Z,99340.14
2022-10-13T13:32:56.869Z,99342.64
2022-10-13T13:36:19.048Z,99338.36
2022-10-13T13:39:36.093Z,99340.66
2022-10-13T13:42:53.217Z,99343.94
2022-10-13T13:46:09.426Z,99343.33
2022-10-13T13:49:25.433Z,99344.58
2022-10-13T13:52:42.532Z,99335.12
2022-10-13T13:56:08.175Z,99340.08
2022-10-13T13:59:24.682Z,99331.03
2022-10-13T14:02:43.739Z,99331.03
2022-10-13T14:06:03.011Z,99330.66
2022-10-13T14:09:16.792Z,99335.16
2022-10-13T14:12:34.439Z,99327.15
2022-10-13T14:15:54.865Z,99338.23
2022-10-13T14:19:11.512Z,99332.89
2022-10-13T14:22:27.849Z,99327.55
2022-10-13T14:25:45.544Z,99341.91
2022-10-13T14:29:02.530Z,99332.08
2022-10-13T14:32:19.329Z,99328.36
2022-10-13T14:35:35.755Z,99327.75
2022-10-13T14:38:52.614Z,99323.02
2022-10-13T14:42:08.716Z,99326.53
2022-10-13T14:45:25.604Z,99326.53
2022-10-13T14:48:45.568Z,99314.20
2022-10-13T14:52:01.984Z,99316.06
2022-10-13T14:55:19.366Z,99321.57
2022-10-13T14:58:37.850Z,99316.44
2022-10-13T15:01:55.179Z,99317.65
2022-10-13T15:05:17.541Z,99317.85
2022-10-13T15:08:38.755Z,99319.88
2022-10-13T15:11:58.276Z,99319.88
2022-10-13T15:15:16.830Z,99318.42
2022-10-13T15:18:33.303Z,99315.31
2022-10-13T15:21:50.458Z,99315.72
2022-10-13T15:25:10.376Z,99308.28
2022-10-13T15:28:26.658Z,99306.39
2022-10-13T15:31:43.240Z,99305.13
2022-10-13T15:35:01.253Z,99303.84
2022-10-13T15:38:19.450Z,99308.73
2022-10-13T15:41:35.697Z,99301.33
2022-10-13T15:45:08.812Z,99301.09
2022-10-13T15:48:10.937Z,99299.19
2022-10-13T15:51:31.037Z,99294.41
2022-10-13T15:54:47.752Z,99301.16
2022-10-13T15:58:03.950Z,99290.21
2022-10-13T16:01:27.221Z,99296.14
2022-10-13T16:04:43.694Z,99298.52
2022-10-13T16:07:59.942Z,99297.91
2022-10-13T16:11:20.802Z,99303.59
2022-10-13T16:14:37.415Z,99295.09
2022-10-13T16:18:01.309Z,99293.19
2022-10-13T16:21:24.385Z,99294.52
2022-10-13T16:24:40.733Z,99288.39
2022-10-13T16:28:03.130Z,99293.45
2022-10-13T16:31:22.489Z,99285.34
2022-10-13T16:34:36.698Z,99285.80
2022-10-13T16:37:57.237Z,99287.01
2022-10-13T16:41:20.979Z,99288.02
2022-10-13T16:44:40.465Z,99283.72
2022-10-13T16:47:59.794Z,99283.98
2022-10-13T16:51:22.252Z,99286.73
2022-10-13T16:54:43.099Z,99281.33
2022-10-13T16:57:59.638Z,99285.27
2022-10-13T17:01:18.096Z,99285.08
2022-10-13T17:04:39.629Z,99285.08
2022-10-13T17:08:10.221Z,99284.08
2022-10-13T17:11:30.723Z,99281.41
2022-10-13T17:14:47.279Z,99284.27
2022-10-13T17:18:05.092Z,99288.94
2022-10-13T17:21:23.548Z,99281.14
2022-10-13T17:24:41.974Z,99283.06
2022-10-13T17:27:58.578Z,99277.53
2022-10-13T17:31:18.037Z,99275.00
2022-10-13T17:34:36.465Z,99274.03
2022-10-13T17:37:59.009Z,99273.52
2022-10-13T17:41:17.666Z,99268.95
2022-10-13T17:44:39.789Z,99266.70
2022-10-13T17:47:59.362Z,99261.42
2022-10-13T17:51:22.013Z,99256.50
2022-10-13T17:54:41.490Z,99254.41
2022-10-13T17:58:00.646Z,99267.20
2022-10-13T18:01:25.963Z,99261.91
2022-10-13T18:04:43.770Z,99262.11
2022-10-13T18:08:03.975Z,99259.99
2022-10-13T18:11:24.665Z,99264.61
2022-10-13T18:14:40.980Z,99271.91
2022-10-13T18:17:57.352Z,99261.80
2022-10-13T18:21:16.149Z,99255.02
2022-10-13T18:24:34.207Z,99253.53
2022-10-13T18:27:50.663Z,99248.89
2022-10-13T18:31:14.241Z,99251.67
2022-10-13T18:34:30.819Z,99245.50
2022-10-13T18:37:50.290Z,99254.33
2022-10-13T18:41:08.814Z,99246.88
2022-10-13T18:44:25.869Z,99249.59
2022-10-13T18:47:43.147Z,99255.08
2022-10-13T18:50:59.937Z,99250.27
2022-10-13T18:54:19.507Z,99249.31
2022-10-13T18:57:36.004Z,99246.81
2022-10-13T19:00:52.242Z,99251.58
2022-10-13T19:04:13.735Z,99244.64
2022-10-13T19:07:29.948Z,99243.80
2022-10-13T19:10:49.731Z,99252.91
2022-10-13T19:14:11.780Z,99250.30
2022-10-13T19:17:28.037Z,99246.14
2022-10-13T19:20:44.646Z,99245.67
2022-10-13T19:24:05.223Z,99238.23
2022-10-13T19:27:22.586Z,99235.76
2022-10-13T19:30:40.793Z,99226.31
2022-10-13T19:34:00.925Z,99230.27
2022-10-13T19:37:17.643Z,99230.91
2022-10-13T19:40:37.804Z,99225.43
2022-10-13T19:43:53.619Z,99227.58
2022-10-13T19:47:10.940Z,99230.36
2022-10-13T19:50:27.184Z,99223.70
2022-10-13T19:53:45.762Z,99231.60
2022-10-13T19:57:02.507Z,99230.61
2022-10-13T20:00:24.103Z,99232.23
2022-10-13T20:03:41.066Z,99225.27
2022-10-13T20:06:58.352Z,99227.73
2022-10-13T20:10:15.974Z,99229.34
2022-10-13T20:13:32.631Z,99227.17
2022-10-13T20:16:50.626Z,99225.32
2022-10-13T20:20:09.359Z,99224.77
2022-10-13T20:23:25.387Z,99223.44
2022-10-13T20:26:42.198Z,99224.36
2022-10-13T20:29:59.117Z,99222.34
2022-10-13T20:33:15.823Z,99213.27
2022-10-13T20:36:38.309Z,99212.23
2022-10-13T20:39:54.519Z,99212.36
2022-10-13T20:43:10.698Z,99211.48
2022-10-13T20:46:28.917Z,99203.69
2022-10-13T20:49:45.084Z,99205.80
2022-10-13T20:53:02.812Z,99204.63
2022-10-13T20:56:24.101Z,99208.08
2022-10-13T20:59:40.172Z,99204.27
2022-10-13T21:03:01.918Z,99197.25
2022-10-13T21:06:20.730Z,99207.52
2022-10-13T21:09:37.020Z,99207.81
2022-10-13T21:12:53.927Z,99201.19
2022-10-13T21:16:16.579Z,99209.11
2022-10-13T21:19:33.014Z,99204.44
2022-10-13T21:22:49.232Z,99209.02
2022-10-13T21:26:08.557Z,99201.71
2022-10-13T21:29:25.131Z,99202.84
2022-10-13T21:32:41.326Z,99196.06
2022-10-13T21:35:57.473Z,99202.32
2022-10-13T21:39:15.329Z,99201.50
2022-10-13T21:42:34.563Z,99195.01
2022-10-13T21:45:54.083Z,99197.27
2022-10-13T21:49:13.039Z,99202.02
2022-10-13T21:52:31.576Z,99197.88
2022-10-13T21:55:47.703Z,99205.95
2022-10-13T21:59:05.240Z,99206.11
2022-10-13T22:02:21.485Z,99207.08
2022-10-13T22:05:37.798Z,99200.14
2022-10-13T22:08:58.822Z,99202.34
2022-10-13T22:12:15.685Z,99194.42
2022-10-13T22:15:31.801Z,99191.02
2022-10-13T22:18:48.352Z,99203.08
2022-10-13T22:22:04.824Z,99198.70
2022-10-13T22:25:21.108Z,99202.41
2022-10-13T22:28:38.522Z,99200.81
2022-10-13T22:31:54.852Z,99201.19
2022-10-13T22:35:11.530Z,99190.17
2022-10-13T22:38:27.962Z,99200.41
2022-10-13T22:41:46.128Z,99204.09
2022-10-13T22:45:02.213Z,99200.84
2022-10-13T22:48:21.203Z,99205.31
2022-10-13T22:51:42.536Z,99203.69
2022-10-13T22:54:59.017Z,99198.11
2022-10-13T22:58:15.640Z,99204.20
2022-10-13T23:01:33.307Z,99200.42
2022-10-13T23:04:49.538Z,99206.39
2022-10-13T23:08:06.805Z,99211.05
2022-10-13T23:11:24.079Z,99200.16
2022-10-13T23:14:40.583Z,99196.70
2022-10-13T23:17:57.657Z,99196.89
2022-10-13T23:21:17.094Z,99200.05
2022-10-13T23:24:33.280Z,99196.27
2022-10-13T23:27:49.492Z,99192.81
2022-10-13T23:31:09.274Z,99187.20
2022-10-13T23:34:26.222Z,99177.98
2022-10-13T23:37:42.808Z,99173.87
2022-10-13T23:40:59.567Z,99166.02
2022-10-13T23:44:18.004Z,99162.69
2022-10-13T23:47:34.490Z,99164.86
2022-10-13T23:50:50.578Z,99162.69
2022-10-13T23:54:08.213Z,99170.57
2022-10-13T23:57:24.379Z,99163.11
